Time;durP1;ratioP1;P1;durP2;ratioP2;P2;SDS_P1;SDS_P2;PMS_P1;PMS_P2;Temp;Humidity;BMP_temperature;BMP_pressure;BME280_temperature;BME280_humidity;BME280_pressure;Samples;Min_cycle;Max_cycle;Signal;HPM_P1;HPM_P2
2022/10/14 00:01:23;;;;;;;46.90;25.42;;;7.20;99.90;;;;;;21056515;28;20069;-50
2022/10/14 00:11:28;;;;;;;55.55;27.85;;;7.30;99.90;;;;;;21055421;28;20276;-48
2022/10/14 00:21:32;;;;;;;43.38;23.90;;;7.20;99.90;;;;;;21034182;28;20054;-58
2022/10/14 00:31:35;;;;;;;40.42;21.10;;;7.10;99.90;;;;;;21037998;28;20090;-51
2022/10/14 00:41:38;;;;;;;23.50;14.57;;;7.00;99.90;;;;;;21036697;28;20101;-59
2022/10/14 00:51:46;;;;;;;31.27;18.42;;;6.90;99.90;;;;;;21052745;28;20040;-52
2022/10/14 01:01:48;;;;;;;21.52;11.95;;;7.00;99.90;;;;;;21052341;28;20462;-57
2022/10/14 01:12:04;;;;;;;22.67;13.30;;;6.80;99.90;;;;;;21052011;28;20032;-47
2022/10/14 01:22:28;;;;;;;22.00;12.23;;;6.90;99.90;;;;;;21014284;28;20040;-51
2022/10/14 01:32:51;;;;;;;25.88;13.18;;;6.50;99.90;;;;;;21051461;28;20040;-58
2022/10/14 01:42:55;;;;;;;24.27;11.02;;;6.60;99.90;;;;;;21050746;28;20340;-51
2022/10/14 01:53:08;;;;;;;14.95;10.07;;;6.50;99.90;;;;;;21050485;28;20089;-50
2022/10/14 02:03:18;;;;;;;16.63;10.00;;;6.80;99.90;;;;;;21050205;28;20032;-49
2022/10/14 02:13:35;;;;;;;17.85;10.40;;;6.90;99.90;;;;;;21049556;28;20051;-51
2022/10/14 02:23:45;;;;;;;19.88;12.15;;;7.00;99.90;;;;;;21026931;28;20382;-51
2022/10/14 02:33:53;;;;;;;20.70;12.37;;;6.90;99.90;;;;;;21046975;28;20036;-52
2022/10/14 02:43:57;;;;;;;30.92;16.05;;;6.80;99.90;;;;;;21059911;28;20048;-53
2022/10/14 02:54:01;;;;;;;18.30;12.05;;;6.70;99.90;;;;;;21045294;28;20040;-51
2022/10/14 03:04:04;;;;;;;24.75;13.98;;;6.40;99.90;;;;;;21045577;28;20427;-51
2022/10/14 03:14:06;;;;;;;24.35;12.90;;;6.40;99.90;;;;;;20961834;28;20028;-50
2022/10/14 03:24:09;;;;;;;22.67;12.00;;;6.40;99.90;;;;;;21000048;28;20327;-51
2022/10/14 03:34:13;;;;;;;20.20;12.07;;;6.30;99.90;;;;;;21041762;28;20413;-50
2022/10/14 03:44:16;;;;;;;19.75;10.68;;;6.50;99.90;;;;;;21057152;28;20044;-50
2022/10/14 03:54:40;;;;;;;22.98;13.10;;;6.50;99.90;;;;;;21056723;28;20081;-52
2022/10/14 04:04:44;;;;;;;20.20;11.88;;;6.50;99.90;;;;;;21055915;28;20144;-46
2022/10/14 04:14:47;;;;;;;16.20;9.52;;;6.40;99.90;;;;;;21055343;28;20062;-53
2022/10/14 04:24:50;;;;;;;18.85;10.82;;;6.40;99.90;;;;;;21033593;28;20485;-52
2022/10/14 04:34:53;;;;;;;19.70;11.15;;;6.30;99.90;;;;;;21053775;28;20032;-51
2022/10/14 04:44:59;;;;;;;20.00;10.98;;;6.20;99.90;;;;;;21036113;28;20048;-49
2022/10/14 04:55:16;;;;;;;19.98;10.10;;;6.20;99.90;;;;;;21052538;28;20036;-50
2022/10/14 05:05:19;;;;;;;17.48;9.30;;;6.30;99.90;;;;;;21052006;28;20044;-52
2022/10/14 05:15:26;;;;;;;18.42;11.60;;;6.20;99.90;;;;;;21035296;28;20485;-51
2022/10/14 05:25:50;;;;;;;18.10;10.85;;;6.20;99.90;;;;;;21030666;28;20052;-51
2022/10/14 05:35:53;;;;;;;21.08;12.25;;;6.10;99.90;;;;;;21050717;28;20085;-52
2022/10/14 05:45:56;;;;;;;21.33;11.57;;;6.00;99.90;;;;;;21033366;28;20409;-49
2022/10/14 05:56:07;;;;;;;24.00;12.95;;;6.30;99.90;;;;;;21030383;28;20093;-50
2022/10/14 06:06:13;;;;;;;23.30;12.87;;;6.40;99.90;;;;;;21065397;28;20097;-52
2022/10/14 06:16:16;;;;;;;28.02;13.57;;;6.50;99.90;;;;;;21065134;28;20277;-51
2022/10/14 06:26:19;;;;;;;22.75;13.00;;;6.60;99.90;;;;;;21043382;28;20085;-52
2022/10/14 06:36:22;;;;;;;27.80;15.27;;;6.70;99.90;;;;;;21062997;28;20080;-50
2022/10/14 06:46:24;;;;;;;26.33;13.95;;;6.90;99.90;;;;;;20982284;28;20385;-51
2022/10/14 06:56:30;;;;;;;24.75;13.50;;;7.30;99.90;;;;;;20978008;28;20094;-51
2022/10/14 07:06:33;;;;;;;28.60;12.95;;;7.70;99.90;;;;;;20976408;28;20048;-53
2022/10/14 07:16:35;;;;;;;22.65;13.95;;;8.30;99.90;;;;;;20975099;28;20066;-52
2022/10/14 07:26:38;;;;;;;19.88;11.77;;;9.20;99.90;;;;;;20955268;28;20028;-52
2022/10/14 07:36:41;;;;;;;25.00;16.10;;;10.20;99.90;;;;;;20974707;28;20481;-54
2022/10/14 07:46:44;;;;;;;26.95;16.88;;;11.30;99.90;;;;;;21056784;28;20129;-60
2022/10/14 07:56:48;;;;;;;22.38;16.15;;;12.70;99.90;;;;;;21040412;28;20401;-51
2022/10/14 08:06:51;;;;;;;24.30;16.17;;;13.70;99.90;;;;;;21056017;28;20043;-60
2022/10/14 08:16:53;;;;;;;20.35;14.00;;;14.60;99.90;;;;;;21054762;28;20066;-61
2022/10/14 08:26:59;;;;;;;19.08;12.90;;;15.10;99.90;;;;;;21035085;28;20088;-60
2022/10/14 08:37:02;;;;;;;16.67;12.63;;;15.90;99.90;;;;;;21053643;28;20086;-52
2022/10/14 08:47:14;;;;;;;18.73;12.77;;;16.50;99.90;;;;;;21053406;28;20449;-60
2022/10/14 08:57:26;;;;;;;16.38;13.00;;;17.10;99.90;;;;;;21052861;28;20052;-50
2022/10/14 09:07:32;;;;;;;17.60;12.52;;;17.40;99.90;;;;;;21053350;28;20032;-52
2022/10/14 09:18:00;;;;;;;19.95;13.80;;;17.20;99.90;;;;;;21046066;28;20024;-50
2022/10/14 09:28:05;;;;;;;17.23;13.37;;;17.40;99.90;;;;;;21050357;28;20062;-53
2022/10/14 09:38:10;;;;;;;17.55;12.80;;;17.80;99.90;;;;;;21067729;28;20048;-52
2022/10/14 09:48:31;;;;;;;18.95;12.88;;;17.70;99.90;;;;;;20946964;28;20103;-60
2022/10/14 09:58:56;;;;;;;17.48;12.82;;;17.60;99.90;;;;;;21054481;28;20481;-52
2022/10/14 10:09:00;;;;;;;18.92;12.82;;;17.30;99.90;;;;;;21032572;28;20061;-60
2022/10/14 10:19:31;;;;;;;17.58;12.95;;;17.90;99.90;;;;;;21046383;28;20397;-60
2022/10/14 10:29:34;;;;;;;17.52;13.73;;;17.90;99.90;;;;;;20896633;28;20053;-57
2022/10/14 10:40:02;;;;;;;21.60;14.40;;;17.90;99.90;;;;;;20998132;28;20101;-51
2022/10/14 10:50:10;;;;;;;18.98;14.63;;;17.60;99.90;;;;;;21062032;28;20036;-59
2022/10/14 11:00:22;;;;;;;20.25;15.93;;;17.30;99.90;;;;;;21061813;28;20116;-60
2022/10/14 11:21:39;;;;;;;22.73;17.02;;;17.30;99.90;;;;;;21039176;28;20039;-60
2022/10/14 11:32:03;;;;;;;22.95;16.23;;;17.40;99.90;;;;;;21059067;28;20032;-49
2022/10/14 11:42:12;;;;;;;29.92;19.77;;;17.60;99.90;;;;;;21057625;28;20409;-50
2022/10/14 11:52:29;;;;;;;26.00;19.00;;;17.60;99.90;;;;;;21056442;28;20097;-52
2022/10/14 12:02:49;;;;;;;25.60;18.65;;;17.30;99.90;;;;;;21056535;28;20028;-50
2022/10/14 12:12:54;;;;;;;31.23;22.67;;;16.50;99.90;;;;;;21055728;28;20062;-52
2022/10/14 12:22:58;;;;;;;28.33;20.58;;;16.30;99.90;;;;;;21018019;28;20081;-50
2022/10/14 12:33:04;;;;;;;32.58;22.05;;;16.00;99.90;;;;;;21054196;28;20065;-54
2022/10/14 12:43:23;;;;;;;34.55;21.25;;;16.10;99.90;;;;;;21053250;28;20040;-52
2022/10/14 12:53:28;;;;;;;;;;;16.40;99.90;;;;;;21053423;28;20048;-52
2022/10/14 13:03:39;;;;;;;35.53;23.45;;;16.70;99.90;;;;;;21052172;28;19934;-52
2022/10/14 13:13:52;;;;;;;28.02;19.60;;;16.60;99.90;;;;;;21051852;28;20089;-53
2022/10/14 13:23:57;;;;;;;29.15;21.73;;;16.20;99.90;;;;;;21031222;28;20036;-51
2022/10/14 13:34:12;;;;;;;30.92;23.02;;;16.10;99.90;;;;;;21051242;28;20062;-51
2022/10/14 13:44:20;;;;;;;34.88;23.33;;;16.00;99.90;;;;;;21068608;28;20044;-60
2022/10/14 13:54:31;;;;;;;34.57;23.10;;;15.90;99.90;;;;;;21050346;28;20078;-52
2022/10/14 14:04:37;;;;;;;30.58;21.63;;;15.80;99.90;;;;;;21049837;28;20093;-61
2022/10/14 14:14:44;;;;;;;32.33;23.27;;;15.70;99.90;;;;;;21026679;28;20036;-51
2022/10/14 14:24:47;;;;;;;32.42;24.60;;;15.40;99.90;;;;;;21043492;28;20036;-52
2022/10/14 14:34:50;;;;;;;48.28;33.03;;;15.00;99.90;;;;;;21063464;28;20078;-52
2022/10/14 14:45:02;;;;;;;50.22;32.38;;;14.60;99.90;;;;;;20962384;28;20095;-53
2022/10/14 14:55:05;;;;;;;54.40;34.53;;;14.20;99.90;;;;;;21012941;28;20660;-48
2022/10/14 15:05:09;;;;;;;59.58;37.85;;;14.00;99.90;;;;;;21061379;28;20489;-52
2022/10/14 15:15:31;;;;;;;60.38;36.53;;;13.60;99.90;;;;;;21060679;28;20035;-53
2022/10/14 15:25:34;;;;;;;51.88;33.35;;;13.30;99.90;;;;;;21039760;28;20389;-50
2022/10/14 15:35:36;;;;;;;54.90;35.70;;;13.00;99.90;;;;;;21058678;28;20451;-59
2022/10/14 15:47:17;;;;;;;63.33;37.35;;;12.80;99.90;;;;;;20985968;28;20564;-60
2022/10/14 15:56:09;;;;;;;60.00;36.85;;;12.80;99.90;;;;;;20973243;28;20090;-51
2022/10/14 16:06:14;;;;;;;65.75;41.30;;;12.70;99.90;;;;;;20972329;28;20078;-50
2022/10/14 16:16:27;;;;;;;64.70;40.22;;;12.50;99.90;;;;;;20971288;28;20029;-51
2022/10/14 16:26:30;;;;;;;68.82;41.28;;;12.30;99.90;;;;;;20950458;28;20036;-49
2022/10/14 16:36:33;;;;;;;65.93;39.63;;;12.00;99.90;;;;;;20969345;28;20032;-52
2022/10/14 16:56:59;;;;;;;54.70;32.67;;;11.60;99.90;;;;;;20986186;28;20099;-51
2022/10/14 17:07:06;;;;;;;69.88;36.20;;;11.30;99.90;;;;;;20985442;28;20370;-52
2022/10/14 17:17:09;;;;;;;67.40;38.50;;;11.00;99.90;;;;;;20967063;28;20098;-51
2022/10/14 17:27:14;;;;;;;74.93;41.45;;;10.80;99.90;;;;;;20872198;28;20531;-51
2022/10/14 17:37:16;;;;;;;88.32;43.28;;;10.60;99.90;;;;;;20868533;28;20086;-51
2022/10/14 17:47:19;;;;;;;72.15;39.83;;;10.40;99.90;;;;;;20990212;28;20045;-52
2022/10/14 17:57:21;;;;;;;82.82;43.90;;;10.40;99.90;;;;;;20982966;28;20032;-58
2022/10/14 18:07:24;;;;;;;87.15;45.90;;;10.30;99.90;;;;;;20998700;28;20090;-51
2022/10/14 18:17:27;;;;;;;85.70;44.15;;;10.10;99.90;;;;;;20993190;28;20037;-52
2022/10/14 18:27:30;;;;;;;76.10;39.40;;;9.90;99.90;;;;;;20982530;28;20041;-49
2022/10/14 18:37:32;;;;;;;66.60;36.80;;;9.80;99.90;;;;;;20997335;28;20098;-50
2022/10/14 18:47:35;;;;;;;60.33;34.42;;;9.70;99.90;;;;;;21062906;28;20044;-52
2022/10/14 18:57:41;;;;;;;65.38;36.45;;;9.70;99.90;;;;;;21060550;28;20036;-49
2022/10/14 19:07:43;;;;;;;63.25;34.67;;;9.60;99.90;;;;;;21062147;28;20546;-52
2022/10/14 19:17:47;;;;;;;65.72;36.50;;;9.50;99.90;;;;;;21052727;28;20040;-51
2022/10/14 19:27:52;;;;;;;59.45;33.97;;;9.60;99.90;;;;;;21047413;28;20044;-52
2022/10/14 19:37:54;;;;;;;63.60;37.25;;;9.70;99.90;;;;;;21038178;28;20044;-50
2022/10/14 19:47:57;;;;;;;75.03;44.35;;;9.80;99.90;;;;;;20974579;28;20105;-51
2022/10/14 19:58:00;;;;;;;77.35;44.78;;;9.90;99.90;;;;;;21046178;28;20039;-52
2022/10/14 20:08:03;;;;;;;79.28;45.95;;;10.10;99.90;;;;;;21055885;28;20061;-52
2022/10/14 20:18:05;;;;;;;76.80;43.50;;;10.30;99.90;;;;;;21014308;28;20329;-53
2022/10/14 20:28:10;;;;;;;78.63;45.75;;;10.40;99.90;;;;;;20972048;28;20082;-52
2022/10/14 20:38:13;;;;;;;91.93;49.72;;;10.40;99.90;;;;;;21003423;28;20040;-53
2022/10/14 20:48:15;;;;;;;83.53;46.60;;;10.60;99.90;;;;;;21053317;28;20052;-50
2022/10/14 20:58:19;;;;;;;78.30;44.28;;;10.60;99.90;;;;;;21052750;28;20081;-52
2022/10/14 21:08:22;;;;;;;69.03;41.80;;;10.50;99.90;;;;;;21052259;28;20032;-57
2022/10/14 21:18:25;;;;;;;79.88;44.00;;;10.50;99.90;;;;;;21038902;28;20037;-52
2022/10/14 21:28:29;;;;;;;69.47;41.88;;;10.60;99.90;;;;;;21062207;28;20036;-50
2022/10/14 21:38:31;;;;;;;73.97;41.92;;;10.50;99.90;;;;;;21068107;28;20040;-58
2022/10/14 21:48:34;;;;;;;72.18;41.38;;;10.50;99.90;;;;;;21067890;28;20092;-52
2022/10/14 21:58:37;;;;;;;81.93;43.65;;;10.40;99.90;;;;;;21066513;28;20481;-59
2022/10/14 22:08:45;;;;;;;82.85;47.17;;;10.40;99.90;;;;;;21066880;28;20109;-58
2022/10/14 22:18:50;;;;;;;81.07;45.83;;;10.50;99.90;;;;;;21048874;28;20028;-50
2022/10/14 22:29:17;;;;;;;94.13;51.22;;;10.40;99.90;;;;;;21060943;28;20032;-52
2022/10/14 22:39:19;;;;;;;87.78;46.97;;;10.30;99.90;;;;;;21051019;28;20048;-48
2022/10/14 22:49:22;;;;;;;92.72;49.92;;;10.30;99.90;;;;;;21062524;28;20454;-50
2022/10/14 22:59:25;;;;;;;64.93;36.90;;;10.30;99.90;;;;;;21061929;28;20089;-58
2022/10/14 23:09:27;;;;;;;67.97;37.75;;;10.10;99.90;;;;;;21079180;28;20097;-51
2022/10/14 23:19:30;;;;;;;58.50;32.05;;;9.90;99.90;;;;;;21023459;28;20037;-52
2022/10/14 23:29:33;;;;;;;65.22;34.50;;;9.50;99.90;;;;;;21061074;28;20469;-57
2022/10/14 23:39:36;;;;;;;66.13;34.40;;;9.20;99.90;;;;;;21058286;28;20180;-55
2022/10/14 23:49:38;;;;;;;76.65;38.10;;;9.10;99.90;;;;;;21040658;28;20040;-49
2022/10/14 23:59:41;;;;;;;82.03;39.55;;;9.00;99.90;;;;;;21057338;28;20495;-51
